sensor_id;sensor_type;location;lat;lon;timestamp;P1;durP1;ratioP1;P2;durP2;ratioP2
69053;SDS011;56125;52.242;4.756;2023-04-24T00:02:16;1.00;;;0.70;;
69053;SDS011;56125;52.242;4.756;2023-04-24T00:07:17;0.70;;;0.60;;
69053;SDS011;56125;52.242;4.756;2023-04-24T00:12:18;1.00;;;0.60;;
69053;SDS011;56125;52.242;4.756;2023-04-24T00:17:19;0.70;;;0.50;;
69053;SDS011;56125;52.242;4.756;2023-04-24T00:22:21;0.60;;;0.60;;
69053;SDS011;56125;52.242;4.756;2023-04-24T00:27:22;0.90;;;0.70;;
69053;SDS011;56125;52.242;4.756;2023-04-24T00:32:23;0.90;;;0.65;;
69053;SDS011;56125;52.242;4.756;2023-04-24T00:37:24;0.80;;;0.67;;
69053;SDS011;56125;52.242;4.756;2023-04-24T00:42:25;1.35;;;0.60;;
69053;SDS011;56125;52.242;4.756;2023-04-24T00:47:27;0.60;;;0.53;;
69053;SDS011;56125;52.242;4.756;2023-04-24T00:52:29;1.40;;;0.73;;
69053;SDS011;56125;52.242;4.756;2023-04-24T00:57:32;0.80;;;0.50;;
69053;SDS011;56125;52.242;4.756;2023-04-24T01:02:33;0.75;;;0.60;;
69053;SDS011;56125;52.242;4.756;2023-04-24T01:07:34;0.70;;;0.60;;
69053;SDS011;56125;52.242;4.756;2023-04-24T01:12:38;1.27;;;0.60;;
69053;SDS011;56125;52.242;4.756;2023-04-24T01:17:39;1.37;;;0.73;;
69053;SDS011;56125;52.242;4.756;2023-04-24T01:22:40;0.75;;;0.60;;
69053;SDS011;56125;52.242;4.756;2023-04-24T01:27:41;0.73;;;0.57;;
69053;SDS011;56125;52.242;4.756;2023-04-24T01:32:43;0.70;;;0.60;;
69053;SDS011;56125;52.242;4.756;2023-04-24T01:37:45;0.60;;;0.50;;
69053;SDS011;56125;52.242;4.756;2023-04-24T01:42:46;0.93;;;0.40;;
69053;SDS011;56125;52.242;4.756;2023-04-24T01:47:48;0.77;;;0.50;;
69053;SDS011;56125;52.242;4.756;2023-04-24T01:52:50;1.25;;;0.50;;
69053;SDS011;56125;52.242;4.756;2023-04-24T01:57:52;1.37;;;0.57;;
69053;SDS011;56125;52.242;4.756;2023-04-24T02:02:56;0.40;;;0.40;;
69053;SDS011;56125;52.242;4.756;2023-04-24T02:07:57;0.80;;;0.60;;
69053;SDS011;56125;52.242;4.756;2023-04-24T02:12:58;0.60;;;0.50;;
69053;SDS011;56125;52.242;4.756;2023-04-24T02:18:00;1.30;;;0.67;;
69053;SDS011;56125;52.242;4.756;2023-04-24T02:23:01;0.50;;;0.50;;
69053;SDS011;56125;52.242;4.756;2023-04-24T02:28:02;0.93;;;0.60;;
69053;SDS011;56125;52.242;4.756;2023-04-24T02:33:03;0.75;;;0.40;;
69053;SDS011;56125;52.242;4.756;2023-04-24T02:38:04;1.13;;;0.60;;
69053;SDS011;56125;52.242;4.756;2023-04-24T02:43:05;0.50;;;0.50;;
69053;SDS011;56125;52.242;4.756;2023-04-24T02:48:06;1.17;;;0.40;;
69053;SDS011;56125;52.242;4.756;2023-04-24T02:53:07;0.82;;;0.50;;
69053;SDS011;56125;52.242;4.756;2023-04-24T02:58:08;0.40;;;0.40;;
69053;SDS011;56125;52.242;4.756;2023-04-24T03:03:10;0.95;;;0.57;;
69053;SDS011;56125;52.242;4.756;2023-04-24T03:08:11;0.63;;;0.50;;
69053;SDS011;56125;52.242;4.756;2023-04-24T03:13:13;1.17;;;0.60;;
69053;SDS011;56125;52.242;4.756;2023-04-24T03:18:14;0.70;;;0.50;;
69053;SDS011;56125;52.242;4.756;2023-04-24T03:23:15;0.80;;;0.50;;
69053;SDS011;56125;52.242;4.756;2023-04-24T03:28:16;1.07;;;0.50;;
69053;SDS011;56125;52.242;4.756;2023-04-24T03:33:17;1.08;;;0.70;;
69053;SDS011;56125;52.242;4.756;2023-04-24T03:38:18;1.03;;;0.50;;
69053;SDS011;56125;52.242;4.756;2023-04-24T03:43:19;0.40;;;0.40;;
69053;SDS011;56125;52.242;4.756;2023-04-24T03:48:20;0.50;;;0.47;;
69053;SDS011;56125;52.242;4.756;2023-04-24T03:53:21;1.55;;;0.55;;
69053;SDS011;56125;52.242;4.756;2023-04-24T03:58:22;0.97;;;0.60;;
69053;SDS011;56125;52.242;4.756;2023-04-24T04:03:23;0.90;;;0.40;;
69053;SDS011;56125;52.242;4.756;2023-04-24T04:08:25;0.70;;;0.50;;
69053;SDS011;56125;52.242;4.756;2023-04-24T04:13:26;1.02;;;0.50;;
69053;SDS011;56125;52.242;4.756;2023-04-24T04:18:27;0.50;;;0.43;;
69053;SDS011;56125;52.242;4.756;2023-04-24T04:23:28;0.60;;;0.50;;
69053;SDS011;56125;52.242;4.756;2023-04-24T04:28:30;0.70;;;0.40;;
69053;SDS011;56125;52.242;4.756;2023-04-24T04:33:32;0.50;;;0.40;;
69053;SDS011;56125;52.242;4.756;2023-04-24T04:38:33;1.53;;;0.50;;
69053;SDS011;56125;52.242;4.756;2023-04-24T04:43:34;0.50;;;0.50;;
69053;SDS011;56125;52.242;4.756;2023-04-24T04:48:35;1.00;;;0.47;;
69053;SDS011;56125;52.242;4.756;2023-04-24T04:53:36;0.65;;;0.40;;
69053;SDS011;56125;52.242;4.756;2023-04-24T04:58:37;0.70;;;0.50;;
69053;SDS011;56125;52.242;4.756;2023-04-24T05:03:38;2.15;;;0.40;;
69053;SDS011;56125;52.242;4.756;2023-04-24T05:08:39;2.23;;;0.40;;
69053;SDS011;56125;52.242;4.756;2023-04-24T05:13:40;0.70;;;0.50;;
69053;SDS011;56125;52.242;4.756;2023-04-24T05:18:41;1.30;;;0.40;;
69053;SDS011;56125;52.242;4.756;2023-04-24T05:23:42;0.63;;;0.50;;
69053;SDS011;56125;52.242;4.756;2023-04-24T05:28:43;2.23;;;0.40;;
69053;SDS011;56125;52.242;4.756;2023-04-24T05:33:45;0.65;;;0.60;;
69053;SDS011;56125;52.242;4.756;2023-04-24T05:38:46;0.80;;;0.60;;
69053;SDS011;56125;52.242;4.756;2023-04-24T05:43:47;1.70;;;0.50;;
69053;SDS011;56125;52.242;4.756;2023-04-24T05:48:48;1.23;;;0.90;;
69053;SDS011;56125;52.242;4.756;2023-04-24T05:53:49;1.30;;;0.80;;
69053;SDS011;56125;52.242;4.756;2023-04-24T05:58:50;2.30;;;0.93;;
69053;SDS011;56125;52.242;4.756;2023-04-24T06:03:51;1.52;;;1.10;;
69053;SDS011;56125;52.242;4.756;2023-04-24T06:08:53;6.43;;;1.30;;
69053;SDS011;56125;52.242;4.756;2023-04-24T06:13:54;1.92;;;1.10;;
69053;SDS011;56125;52.242;4.756;2023-04-24T06:18:55;5.23;;;1.67;;
69053;SDS011;56125;52.242;4.756;2023-04-24T06:23:56;9.40;;;1.90;;
69053;SDS011;56125;52.242;4.756;2023-04-24T06:28:57;11.80;;;2.90;;
69053;SDS011;56125;52.242;4.756;2023-04-24T06:33:59;11.82;;;2.30;;
69053;SDS011;56125;52.242;4.756;2023-04-24T06:39:01;11.87;;;2.57;;
69053;SDS011;56125;52.242;4.756;2023-04-24T06:44:02;11.93;;;2.63;;
69053;SDS011;56125;52.242;4.756;2023-04-24T06:49:03;9.90;;;2.60;;
69053;SDS011;56125;52.242;4.756;2023-04-24T06:54:04;7.60;;;2.50;;
69053;SDS011;56125;52.242;4.756;2023-04-24T06:59:05;12.57;;;2.53;;
69053;SDS011;56125;52.242;4.756;2023-04-24T07:04:06;9.50;;;2.83;;
69053;SDS011;56125;52.242;4.756;2023-04-24T07:09:07;10.70;;;2.40;;
69053;SDS011;56125;52.242;4.756;2023-04-24T07:14:09;10.20;;;2.72;;
69053;SDS011;56125;52.242;4.756;2023-04-24T07:19:11;9.70;;;2.67;;
69053;SDS011;56125;52.242;4.756;2023-04-24T07:24:12;6.55;;;2.20;;
69053;SDS011;56125;52.242;4.756;2023-04-24T07:29:13;5.27;;;2.27;;
69053;SDS011;56125;52.242;4.756;2023-04-24T07:34:15;8.30;;;2.10;;
69053;SDS011;56125;52.242;4.756;2023-04-24T07:39:16;10.27;;;2.60;;
69053;SDS011;56125;52.242;4.756;2023-04-24T07:44:17;5.97;;;2.22;;
69053;SDS011;56125;52.242;4.756;2023-04-24T07:49:18;11.33;;;2.67;;
69053;SDS011;56125;52.242;4.756;2023-04-24T07:54:19;5.00;;;1.90;;
69053;SDS011;56125;52.242;4.756;2023-04-24T07:59:20;4.03;;;1.70;;
69053;SDS011;56125;52.242;4.756;2023-04-24T08:04:21;7.47;;;2.10;;
69053;SDS011;56125;52.242;4.756;2023-04-24T08:09:22;4.10;;;1.67;;
69053;SDS011;56125;52.242;4.756;2023-04-24T08:14:23;6.97;;;1.70;;
69053;SDS011;56125;52.242;4.756;2023-04-24T08:19:24;5.20;;;1.50;;
69053;SDS011;56125;52.242;4.756;2023-04-24T08:24:26;4.47;;;1.50;;
69053;SDS011;56125;52.242;4.756;2023-04-24T08:29:27;3.67;;;1.60;;
69053;SDS011;56125;52.242;4.756;2023-04-24T08:34:28;5.43;;;1.40;;
69053;SDS011;56125;52.242;4.756;2023-04-24T08:39:29;5.80;;;1.70;;
69053;SDS011;56125;52.242;4.756;2023-04-24T08:44:34;4.88;;;1.60;;
69053;SDS011;56125;52.242;4.756;2023-04-24T08:49:36;3.60;;;1.50;;
69053;SDS011;56125;52.242;4.756;2023-04-24T08:54:38;5.28;;;1.58;;
69053;SDS011;56125;52.242;4.756;2023-04-24T08:59:40;3.37;;;1.60;;
69053;SDS011;56125;52.242;4.756;2023-04-24T09:04:41;5.65;;;2.03;;
69053;SDS011;56125;52.242;4.756;2023-04-24T09:09:44;4.17;;;1.60;;
69053;SDS011;56125;52.242;4.756;2023-04-24T09:14:46;3.65;;;1.30;;
69053;SDS011;56125;52.242;4.756;2023-04-24T09:19:49;4.23;;;1.40;;
69053;SDS011;56125;52.242;4.756;2023-04-24T09:24:59;4.55;;;1.75;;
69053;SDS011;56125;52.242;4.756;2023-04-24T09:30:04;3.07;;;1.60;;
69053;SDS011;56125;52.242;4.756;2023-04-24T09:35:09;3.53;;;1.08;;
69053;SDS011;56125;52.242;4.756;2023-04-24T09:40:16;5.03;;;1.50;;
69053;SDS011;56125;52.242;4.756;2023-04-24T09:45:21;3.58;;;1.42;;
69053;SDS011;56125;52.242;4.756;2023-04-24T09:50:22;5.07;;;1.10;;
69053;SDS011;56125;52.242;4.756;2023-04-24T09:55:23;2.78;;;1.08;;
69053;SDS011;56125;52.242;4.756;2023-04-24T10:00:26;4.67;;;1.03;;
69053;SDS011;56125;52.242;4.756;2023-04-24T10:05:36;1.80;;;1.00;;
69053;SDS011;56125;52.242;4.756;2023-04-24T10:10:44;3.13;;;1.30;;
69053;SDS011;56125;52.242;4.756;2023-04-24T10:15:46;2.08;;;1.10;;
69053;SDS011;56125;52.242;4.756;2023-04-24T10:20:48;4.77;;;1.40;;
69053;SDS011;56125;52.242;4.756;2023-04-24T10:25:49;3.72;;;1.42;;
69053;SDS011;56125;52.242;4.756;2023-04-24T10:30:51;2.57;;;1.00;;
69053;SDS011;56125;52.242;4.756;2023-04-24T10:35:55;2.65;;;1.08;;
69053;SDS011;56125;52.242;4.756;2023-04-24T10:41:07;2.77;;;1.00;;
69053;SDS011;56125;52.242;4.756;2023-04-24T10:46:18;2.33;;;0.90;;
69053;SDS011;56125;52.242;4.756;2023-04-24T10:51:25;3.23;;;0.80;;
69053;SDS011;56125;52.242;4.756;2023-04-24T10:56:47;3.17;;;0.90;;
69053;SDS011;56125;52.242;4.756;2023-04-24T11:01:52;1.70;;;0.70;;
69053;SDS011;56125;52.242;4.756;2023-04-24T11:06:55;1.67;;;0.80;;
69053;SDS011;56125;52.242;4.756;2023-04-24T11:12:09;1.73;;;1.00;;
69053;SDS011;56125;52.242;4.756;2023-04-24T11:17:26;1.30;;;0.70;;
69053;SDS011;56125;52.242;4.756;2023-04-24T11:22:32;2.77;;;0.63;;
69053;SDS011;56125;52.242;4.756;2023-04-24T11:27:39;1.35;;;0.70;;
69053;SDS011;56125;52.242;4.756;2023-04-24T11:32:50;2.93;;;0.80;;
69053;SDS011;56125;52.242;4.756;2023-04-24T11:37:52;1.75;;;0.77;;
69053;SDS011;56125;52.242;4.756;2023-04-24T11:42:54;2.13;;;0.73;;
69053;SDS011;56125;52.242;4.756;2023-04-24T11:47:59;2.17;;;0.70;;
69053;SDS011;56125;52.242;4.756;2023-04-24T11:53:00;1.10;;;0.80;;
69053;SDS011;56125;52.242;4.756;2023-04-24T11:58:01;2.38;;;1.00;;
69053;SDS011;56125;52.242;4.756;2023-04-24T12:03:09;3.07;;;0.60;;
69053;SDS011;56125;52.242;4.756;2023-04-24T12:08:11;2.17;;;0.80;;
69053;SDS011;56125;52.242;4.756;2023-04-24T12:13:27;1.73;;;0.80;;
69053;SDS011;56125;52.242;4.756;2023-04-24T12:18:28;2.35;;;0.77;;
69053;SDS011;56125;52.242;4.756;2023-04-24T12:23:35;3.47;;;1.47;;
69053;SDS011;56125;52.242;4.756;2023-04-24T12:28:36;5.40;;;1.02;;
69053;SDS011;56125;52.242;4.756;2023-04-24T12:33:38;4.40;;;1.00;;
69053;SDS011;56125;52.242;4.756;2023-04-24T12:38:42;2.95;;;1.17;;
69053;SDS011;56125;52.242;4.756;2023-04-24T12:43:51;4.23;;;1.10;;
69053;SDS011;56125;52.242;4.756;2023-04-24T12:48:53;2.70;;;0.90;;
69053;SDS011;56125;52.242;4.756;2023-04-24T12:53:54;5.63;;;1.43;;
69053;SDS011;56125;52.242;4.756;2023-04-24T12:58:55;4.63;;;1.20;;
69053;SDS011;56125;52.242;4.756;2023-04-24T13:03:56;4.37;;;1.23;;
69053;SDS011;56125;52.242;4.756;2023-04-24T13:08:57;3.60;;;0.90;;
69053;SDS011;56125;52.242;4.756;2023-04-24T13:13:58;4.87;;;1.47;;
69053;SDS011;56125;52.242;4.756;2023-04-24T13:18:59;2.25;;;1.05;;
69053;SDS011;56125;52.242;4.756;2023-04-24T13:24:00;4.50;;;1.27;;
69053;SDS011;56125;52.242;4.756;2023-04-24T13:29:01;4.40;;;1.15;;
69053;SDS011;56125;52.242;4.756;2023-04-24T13:34:03;4.13;;;1.37;;
69053;SDS011;56125;52.242;4.756;2023-04-24T13:39:04;2.50;;;1.30;;
69053;SDS011;56125;52.242;4.756;2023-04-24T13:44:07;4.97;;;1.57;;
69053;SDS011;56125;52.242;4.756;2023-04-24T13:49:08;4.78;;;1.50;;
69053;SDS011;56125;52.242;4.756;2023-04-24T13:54:09;5.27;;;1.50;;
69053;SDS011;56125;52.242;4.756;2023-04-24T13:59:11;3.65;;;1.45;;
69053;SDS011;56125;52.242;4.756;2023-04-24T14:04:13;2.83;;;1.20;;
69053;SDS011;56125;52.242;4.756;2023-04-24T14:09:14;5.80;;;1.33;;
69053;SDS011;56125;52.242;4.756;2023-04-24T14:14:15;5.27;;;1.50;;
69053;SDS011;56125;52.242;4.756;2023-04-24T14:19:16;5.50;;;1.85;;
69053;SDS011;56125;52.242;4.756;2023-04-24T14:24:17;4.73;;;1.43;;
69053;SDS011;56125;52.242;4.756;2023-04-24T14:29:18;5.50;;;1.35;;
69053;SDS011;56125;52.242;4.756;2023-04-24T14:34:20;7.03;;;1.93;;
69053;SDS011;56125;52.242;4.756;2023-04-24T14:39:21;6.32;;;1.73;;
69053;SDS011;56125;52.242;4.756;2023-04-24T14:44:22;4.97;;;1.30;;
69053;SDS011;56125;52.242;4.756;2023-04-24T14:49:23;3.75;;;1.40;;
69053;SDS011;56125;52.242;4.756;2023-04-24T14:54:24;3.27;;;1.57;;
69053;SDS011;56125;52.242;4.756;2023-04-24T14:59:25;6.60;;;1.90;;
69053;SDS011;56125;52.242;4.756;2023-04-24T15:04:27;5.87;;;1.50;;
69053;SDS011;56125;52.242;4.756;2023-04-24T15:09:29;4.95;;;1.63;;
69053;SDS011;56125;52.242;4.756;2023-04-24T15:14:32;3.97;;;1.47;;
69053;SDS011;56125;52.242;4.756;2023-04-24T15:19:33;3.90;;;1.33;;
69053;SDS011;56125;52.242;4.756;2023-04-24T15:24:34;6.93;;;1.57;;
69053;SDS011;56125;52.242;4.756;2023-04-24T15:29:35;4.03;;;1.42;;
69053;SDS011;56125;52.242;4.756;2023-04-24T15:34:36;9.37;;;1.83;;
69053;SDS011;56125;52.242;4.756;2023-04-24T15:39:37;4.45;;;1.80;;
69053;SDS011;56125;52.242;4.756;2023-04-24T15:44:38;3.37;;;1.60;;
69053;SDS011;56125;52.242;4.756;2023-04-24T15:49:39;4.93;;;1.63;;
69053;SDS011;56125;52.242;4.756;2023-04-24T15:54:40;5.83;;;1.77;;
69053;SDS011;56125;52.242;4.756;2023-04-24T15:59:41;4.57;;;2.05;;
69053;SDS011;56125;52.242;4.756;2023-04-24T16:04:45;5.87;;;1.97;;
69053;SDS011;56125;52.242;4.756;2023-04-24T16:09:47;7.10;;;1.70;;
69053;SDS011;56125;52.242;4.756;2023-04-24T16:14:48;5.00;;;1.80;;
69053;SDS011;56125;52.242;4.756;2023-04-24T16:19:49;8.27;;;1.95;;
69053;SDS011;56125;52.242;4.756;2023-04-24T16:24:50;4.97;;;1.90;;
69053;SDS011;56125;52.242;4.756;2023-04-24T16:29:51;4.97;;;1.65;;
69053;SDS011;56125;52.242;4.756;2023-04-24T16:34:52;2.33;;;1.33;;
69053;SDS011;56125;52.242;4.756;2023-04-24T16:39:53;5.97;;;1.60;;
69053;SDS011;56125;52.242;4.756;2023-04-24T16:44:54;6.70;;;1.80;;
69053;SDS011;56125;52.242;4.756;2023-04-24T16:49:55;4.10;;;1.85;;
69053;SDS011;56125;52.242;4.756;2023-04-24T16:54:57;4.03;;;1.77;;
69053;SDS011;56125;52.242;4.756;2023-04-24T16:59:58;3.80;;;1.55;;
69053;SDS011;56125;52.242;4.756;2023-04-24T17:04:59;4.17;;;2.43;;
69053;SDS011;56125;52.242;4.756;2023-04-24T17:10:00;4.63;;;1.90;;
69053;SDS011;56125;52.242;4.756;2023-04-24T17:15:01;7.07;;;1.60;;
69053;SDS011;56125;52.242;4.756;2023-04-24T17:20:02;3.33;;;1.40;;
69053;SDS011;56125;52.242;4.756;2023-04-24T17:25:05;5.10;;;1.70;;
69053;SDS011;56125;52.242;4.756;2023-04-24T17:30:06;4.38;;;1.50;;
69053;SDS011;56125;52.242;4.756;2023-04-24T17:35:08;5.33;;;1.60;;
69053;SDS011;56125;52.242;4.756;2023-04-24T17:40:10;7.60;;;1.55;;
69053;SDS011;56125;52.242;4.756;2023-04-24T17:45:11;5.60;;;1.63;;
69053;SDS011;56125;52.242;4.756;2023-04-24T17:50:12;6.32;;;2.85;;
69053;SDS011;56125;52.242;4.756;2023-04-24T17:55:15;3.60;;;1.37;;
69053;SDS011;56125;52.242;4.756;2023-04-24T18:00:16;3.97;;;1.63;;
69053;SDS011;56125;52.242;4.756;2023-04-24T18:05:17;5.63;;;1.60;;
69053;SDS011;56125;52.242;4.756;2023-04-24T18:10:18;4.75;;;1.60;;
69053;SDS011;56125;52.242;4.756;2023-04-24T18:15:20;5.50;;;1.40;;
69053;SDS011;56125;52.242;4.756;2023-04-24T18:20:21;4.07;;;1.40;;
69053;SDS011;56125;52.242;4.756;2023-04-24T18:25:22;2.83;;;1.47;;
69053;SDS011;56125;52.242;4.756;2023-04-24T18:30:25;3.53;;;1.27;;
69053;SDS011;56125;52.242;4.756;2023-04-24T18:35:30;2.93;;;1.17;;
69053;SDS011;56125;52.242;4.756;2023-04-24T18:40:31;2.97;;;1.25;;
69053;SDS011;56125;52.242;4.756;2023-04-24T18:45:32;4.63;;;1.70;;
69053;SDS011;56125;52.242;4.756;2023-04-24T18:50:33;3.53;;;1.48;;
69053;SDS011;56125;52.242;4.756;2023-04-24T18:55:35;3.37;;;1.00;;
69053;SDS011;56125;52.242;4.756;2023-04-24T19:00:36;2.35;;;1.00;;
69053;SDS011;56125;52.242;4.756;2023-04-24T19:05:37;2.17;;;1.10;;
69053;SDS011;56125;52.242;4.756;2023-04-24T19:10:38;2.88;;;1.20;;
69053;SDS011;56125;52.242;4.756;2023-04-24T19:15:39;3.27;;;1.10;;
69053;SDS011;56125;52.242;4.756;2023-04-24T19:20:40;3.67;;;1.30;;
69053;SDS011;56125;52.242;4.756;2023-04-24T19:25:43;2.03;;;0.90;;
69053;SDS011;56125;52.242;4.756;2023-04-24T19:30:44;1.67;;;0.80;;
69053;SDS011;56125;52.242;4.756;2023-04-24T19:35:45;2.63;;;1.00;;
69053;SDS011;56125;52.242;4.756;2023-04-24T19:40:46;2.25;;;0.73;;
69053;SDS011;56125;52.242;4.756;2023-04-24T19:45:47;3.93;;;1.00;;
69053;SDS011;56125;52.242;4.756;2023-04-24T19:50:50;2.00;;;1.10;;
69053;SDS011;56125;52.242;4.756;2023-04-24T19:55:52;2.13;;;0.90;;
69053;SDS011;56125;52.242;4.756;2023-04-24T20:00:53;2.90;;;0.95;;
69053;SDS011;56125;52.242;4.756;2023-04-24T20:05:54;3.23;;;1.33;;
69053;SDS011;56125;52.242;4.756;2023-04-24T20:10:55;1.15;;;1.00;;
69053;SDS011;56125;52.242;4.756;2023-04-24T20:15:57;2.30;;;0.70;;
69053;SDS011;56125;52.242;4.756;2023-04-24T20:20:58;1.27;;;0.73;;
69053;SDS011;56125;52.242;4.756;2023-04-24T20:25:59;3.37;;;0.70;;
69053;SDS011;56125;52.242;4.756;2023-04-24T20:31:01;3.30;;;0.98;;
69053;SDS011;56125;52.242;4.756;2023-04-24T20:36:03;2.67;;;1.03;;
69053;SDS011;56125;52.242;4.756;2023-04-24T20:41:04;2.92;;;0.90;;
69053;SDS011;56125;52.242;4.756;2023-04-24T20:46:07;3.53;;;0.90;;
69053;SDS011;56125;52.242;4.756;2023-04-24T20:51:08;2.58;;;1.15;;
69053;SDS011;56125;52.242;4.756;2023-04-24T20:56:09;3.03;;;0.97;;
69053;SDS011;56125;52.242;4.756;2023-04-24T21:01:11;2.45;;;0.95;;
69053;SDS011;56125;52.242;4.756;2023-04-24T21:06:12;4.03;;;1.00;;
69053;SDS011;56125;52.242;4.756;2023-04-24T21:11:13;3.30;;;0.80;;
69053;SDS011;56125;52.242;4.756;2023-04-24T21:16:14;2.20;;;0.93;;
69053;SDS011;56125;52.242;4.756;2023-04-24T21:21:15;2.35;;;0.85;;
69053;SDS011;56125;52.242;4.756;2023-04-24T21:26:17;3.43;;;0.83;;
69053;SDS011;56125;52.242;4.756;2023-04-24T21:31:18;2.45;;;0.88;;
69053;SDS011;56125;52.242;4.756;2023-04-24T21:36:19;2.53;;;1.00;;
69053;SDS011;56125;52.242;4.756;2023-04-24T21:41:20;3.78;;;1.10;;
69053;SDS011;56125;52.242;4.756;2023-04-24T21:46:22;3.07;;;0.83;;
69053;SDS011;56125;52.242;4.756;2023-04-24T21:51:23;2.08;;;0.80;;
69053;SDS011;56125;52.242;4.756;2023-04-24T21:56:24;2.13;;;0.90;;
69053;SDS011;56125;52.242;4.756;2023-04-24T22:01:25;2.70;;;0.95;;
69053;SDS011;56125;52.242;4.756;2023-04-24T22:06:26;3.63;;;0.77;;
69053;SDS011;56125;52.242;4.756;2023-04-24T22:11:27;2.42;;;1.00;;
69053;SDS011;56125;52.242;4.756;2023-04-24T22:16:28;3.17;;;1.00;;
69053;SDS011;56125;52.242;4.756;2023-04-24T22:21:29;2.50;;;0.90;;
69053;SDS011;56125;52.242;4.756;2023-04-24T22:26:30;1.97;;;1.07;;
69053;SDS011;56125;52.242;4.756;2023-04-24T22:31:31;2.65;;;1.17;;
69053;SDS011;56125;52.242;4.756;2023-04-24T22:36:33;3.27;;;1.00;;
69053;SDS011;56125;52.242;4.756;2023-04-24T22:41:34;2.63;;;1.10;;
69053;SDS011;56125;52.242;4.756;2023-04-24T22:46:35;3.30;;;1.20;;
69053;SDS011;56125;52.242;4.756;2023-04-24T22:51:36;2.67;;;1.00;;
69053;SDS011;56125;52.242;4.756;2023-04-24T22:56:40;4.20;;;1.10;;
69053;SDS011;56125;52.242;4.756;2023-04-24T23:01:41;2.45;;;1.05;;
69053;SDS011;56125;52.242;4.756;2023-04-24T23:06:42;2.80;;;0.90;;
69053;SDS011;56125;52.242;4.756;2023-04-24T23:11:43;3.28;;;1.02;;
69053;SDS011;56125;52.242;4.756;2023-04-24T23:16:44;4.40;;;1.30;;
69053;SDS011;56125;52.242;4.756;2023-04-24T23:21:45;2.88;;;1.20;;
69053;SDS011;56125;52.242;4.756;2023-04-24T23:26:46;3.03;;;1.00;;
69053;SDS011;56125;52.242;4.756;2023-04-24T23:31:47;3.25;;;1.02;;
69053;SDS011;56125;52.242;4.756;2023-04-24T23:36:49;4.03;;;1.47;;
69053;SDS011;56125;52.242;4.756;2023-04-24T23:41:51;3.50;;;1.10;;
69053;SDS011;56125;52.242;4.756;2023-04-24T23:46:53;3.97;;;1.40;;
69053;SDS011;56125;52.242;4.756;2023-04-24T23:51:54;3.45;;;1.30;;
69053;SDS011;56125;52.242;4.756;2023-04-24T23:56:55;4.53;;;1.33;;
